createdAt,value
2022-08-09T00:00:46.698Z,0.00
2022-08-09T00:01:54.967Z,0.00
2022-08-09T00:02:55.657Z,0.00
2022-08-09T00:04:15.367Z,0.00
2022-08-09T00:06:15.900Z,0.00
2022-08-09T00:06:19.655Z,0.00
2022-08-09T00:07:13.577Z,0.00
2022-08-09T00:08:31.951Z,0.00
2022-08-09T00:09:22.532Z,0.00
2022-08-09T00:10:27.008Z,0.00
2022-08-09T00:12:04.033Z,0.00
2022-08-09T00:12:36.190Z,0.00
2022-08-09T00:13:40.843Z,0.00
2022-08-09T00:14:45.294Z,0.00
2022-08-09T00:15:59.667Z,0.00
2022-08-09T00:16:53.908Z,0.00
2022-08-09T00:18:07.491Z,0.00
2022-08-09T00:19:02.848Z,0.00
2022-08-09T00:20:07.320Z,0.00
2022-08-09T00:21:11.792Z,0.00
2022-08-09T00:22:16.284Z,0.00
2022-08-09T00:23:56.505Z,0.00
2022-08-09T00:24:25.227Z,0.00
2022-08-09T00:25:32.769Z,0.00
2022-08-09T00:26:34.193Z,0.00
2022-08-09T00:27:42.952Z,0.00
2022-08-09T00:28:52.341Z,0.00
2022-08-09T00:30:24.660Z,0.00
2022-08-09T00:30:52.111Z,0.00
2022-08-09T00:32:01.222Z,0.00
2022-08-09T00:33:01.329Z,0.00
2022-08-09T00:34:05.593Z,0.00
2022-08-09T00:35:10.051Z,0.00
2022-08-09T00:36:14.524Z,0.00
2022-08-09T00:37:19.071Z,0.00
2022-08-09T00:38:23.544Z,0.00
2022-08-09T00:40:13.054Z,0.00
2022-08-09T00:40:32.518Z,0.00
2022-08-09T00:44:10.391Z,0.00
2022-08-09T00:44:15.310Z,0.00
2022-08-09T00:44:15.598Z,0.00
2022-08-09T00:44:50.382Z,0.00
2022-08-09T00:45:54.827Z,0.00
2022-08-09T00:47:04.482Z,0.00
2022-08-09T00:48:03.785Z,0.00
2022-08-09T00:49:08.265Z,0.00
2022-08-09T00:50:14.170Z,0.00
2022-08-09T00:51:17.205Z,0.00
2022-08-09T00:52:21.676Z,0.00
2022-08-09T00:53:26.175Z,0.00
2022-08-09T00:54:35.251Z,0.00
2022-08-09T00:56:04.880Z,0.00
2022-08-09T00:56:39.606Z,0.00
2022-08-09T00:57:44.103Z,0.00
2022-08-09T00:58:49.085Z,0.00
2022-08-09T00:59:53.047Z,0.00
2022-08-09T01:00:59.004Z,0.00
2022-08-09T01:02:01.985Z,0.00
2022-08-09T01:03:06.475Z,0.00
2022-08-09T01:04:10.944Z,0.00
2022-08-09T01:05:22.146Z,0.00
2022-08-09T01:06:19.896Z,0.00
2022-08-09T01:07:37.825Z,0.00
2022-08-09T01:08:28.857Z,0.00
2022-08-09T01:09:36.444Z,0.00
2022-08-09T01:10:37.788Z,0.00
2022-08-09T01:11:42.258Z,0.00
2022-08-09T01:12:46.726Z,0.00
2022-08-09T01:13:59.122Z,0.00
2022-08-09T01:14:55.687Z,0.00
2022-08-09T01:16:00.148Z,0.00
2022-08-09T01:17:04.617Z,0.00
2022-08-09T01:18:09.109Z,0.00
2022-08-09T01:19:17.227Z,0.00
2022-08-09T01:20:18.050Z,0.00
2022-08-09T01:21:24.789Z,0.00
2022-08-09T01:22:27.196Z,0.00
2022-08-09T01:24:02.180Z,0.00
2022-08-09T01:24:35.951Z,0.00
2022-08-09T01:25:41.955Z,0.00
2022-08-09T01:26:46.335Z,0.00
2022-08-09T01:27:50.749Z,0.00
2022-08-09T01:28:53.860Z,0.00
2022-08-09T01:29:58.340Z,0.00
2022-08-09T01:31:02.802Z,0.00
2022-08-09T01:32:32.534Z,0.00
2022-08-09T01:33:11.770Z,0.00
2022-08-09T01:34:16.242Z,0.00
2022-08-09T01:35:37.818Z,0.00
2022-08-09T01:36:25.174Z,0.00
2022-08-09T01:38:05.751Z,0.00
2022-08-09T01:38:34.132Z,0.00
2022-08-09T01:39:38.651Z,0.00
2022-08-09T01:40:43.089Z,0.00
2022-08-09T01:41:55.643Z,0.00
2022-08-09T01:42:52.014Z,0.00
2022-08-09T01:43:56.510Z,0.00
2022-08-09T01:45:01.023Z,0.00
2022-08-09T01:46:05.484Z,0.00
2022-08-09T01:47:11.736Z,0.00
2022-08-09T01:48:15.575Z,0.00
2022-08-09T01:49:18.913Z,0.00
2022-08-09T01:50:28.957Z,0.00
2022-08-09T01:51:27.845Z,0.00
2022-08-09T01:52:32.528Z,0.00
2022-08-09T01:53:41.837Z,0.00
2022-08-09T01:54:41.276Z,0.00
2022-08-09T01:55:45.745Z,0.00
2022-08-09T01:56:51.455Z,0.00
2022-08-09T01:57:54.691Z,0.00
2022-08-09T01:58:59.188Z,0.00
2022-08-09T02:00:19.207Z,0.00
2022-08-09T02:01:08.170Z,0.00
2022-08-09T02:02:12.629Z,0.00
2022-08-09T02:03:17.095Z,0.00
2022-08-09T02:04:21.557Z,0.00
2022-08-09T02:05:37.814Z,0.00
2022-08-09T02:06:32.333Z,0.00
2022-08-09T02:08:41.400Z,0.00
2022-08-09T02:08:58.419Z,0.00
2022-08-09T02:09:43.970Z,0.00
2022-08-09T02:10:51.345Z,0.00
2022-08-09T02:11:52.887Z,0.00
2022-08-09T02:12:57.357Z,0.00
2022-08-09T02:14:07.012Z,0.00
2022-08-09T02:15:07.619Z,0.00
2022-08-09T02:16:10.910Z,0.00
2022-08-09T02:18:00.004Z,0.00
2022-08-09T02:18:19.871Z,0.00
2022-08-09T02:19:24.348Z,0.00
2022-08-09T02:20:33.962Z,0.00
2022-08-09T02:21:34.260Z,0.00
2022-08-09T02:22:37.758Z,0.00
2022-08-09T02:23:43.144Z,0.00
2022-08-09T02:24:52.025Z,0.00
2022-08-09T02:25:55.941Z,0.00
2022-08-09T02:26:55.656Z,0.00
2022-08-09T02:28:03.738Z,0.00
2022-08-09T02:29:04.631Z,0.00
2022-08-09T02:30:09.099Z,0.00
2022-08-09T02:31:13.569Z,0.00
2022-08-09T02:32:18.041Z,0.00
2022-08-09T02:33:22.952Z,0.00
2022-08-09T02:34:41.760Z,0.00
2022-08-09T02:36:01.986Z,0.00
2022-08-09T02:36:35.963Z,0.00
2022-08-09T02:37:40.429Z,0.00
2022-08-09T02:38:47.753Z,0.00
2022-08-09T02:39:49.771Z,0.00
2022-08-09T02:40:53.911Z,0.00
2022-08-09T02:41:58.353Z,0.00
2022-08-09T02:43:02.835Z,0.00
2022-08-09T02:44:13.726Z,0.00
2022-08-09T02:45:11.802Z,0.00
2022-08-09T02:46:16.298Z,0.00
2022-08-09T02:47:20.772Z,0.00
2022-08-09T02:48:30.734Z,0.00
2022-08-09T02:49:38.939Z,0.00
2022-08-09T02:50:34.207Z,0.00
2022-08-09T02:51:40.441Z,0.00
2022-08-09T02:52:43.152Z,0.00
2022-08-09T02:53:59.618Z,0.00
2022-08-09T02:54:54.994Z,0.00
2022-08-09T02:55:57.940Z,0.00
2022-08-09T02:57:01.085Z,0.00
2022-08-09T02:58:35.438Z,0.00
2022-08-09T02:59:10.345Z,0.00
2022-08-09T03:00:25.639Z,0.00
2022-08-09T03:01:21.809Z,0.00
2022-08-09T03:02:23.537Z,0.00
2022-08-09T03:03:37.186Z,0.00
2022-08-09T03:04:32.445Z,0.00
2022-08-09T03:05:36.905Z,0.00
2022-08-09T03:06:41.377Z,0.00
2022-08-09T03:07:55.082Z,0.00
2022-08-09T03:08:50.339Z,0.00
2022-08-09T03:09:56.753Z,0.00
2022-08-09T03:10:59.319Z,0.00
2022-08-09T03:12:10.474Z,0.00
2022-08-09T03:13:10.073Z,0.00
2022-08-09T03:14:12.782Z,0.00
2022-08-09T03:15:17.240Z,0.00
2022-08-09T03:16:21.716Z,0.00
2022-08-09T03:17:26.909Z,0.00
2022-08-09T03:18:31.227Z,0.00
2022-08-09T03:19:58.528Z,0.00
2022-08-09T03:20:39.619Z,0.00
2022-08-09T03:21:44.088Z,0.00
2022-08-09T03:22:56.887Z,0.00
2022-08-09T03:24:04.620Z,0.00
2022-08-09T03:25:21.809Z,0.00
2022-08-09T03:26:04.720Z,0.00
2022-08-09T03:27:07.273Z,0.00
2022-08-09T03:28:11.224Z,4.00
2022-08-09T03:29:22.584Z,0.00
2022-08-09T03:30:29.616Z,0.00
2022-08-09T03:31:24.388Z,4.00
2022-08-09T03:32:28.863Z,4.00
2022-08-09T03:33:53.970Z,4.00
2022-08-09T03:34:37.833Z,4.00
2022-08-09T03:36:11.220Z,4.00
2022-08-09T03:36:58.220Z,4.00
2022-08-09T03:37:56.027Z,8.00
2022-08-09T03:38:56.399Z,8.00
2022-08-09T03:40:00.317Z,8.00
2022-08-09T03:41:04.714Z,8.00
2022-08-09T03:42:09.182Z,12.00
2022-08-09T03:43:13.667Z,16.00
2022-08-09T03:44:18.140Z,16.00
2022-08-09T03:46:02.965Z,20.00
2022-08-09T03:46:30.276Z,20.00
2022-08-09T03:47:31.572Z,28.00
2022-08-09T03:48:36.178Z,32.00
2022-08-09T03:49:40.513Z,36.00
2022-08-09T03:50:45.003Z,40.00
2022-08-09T03:51:58.742Z,44.00
2022-08-09T03:52:53.943Z,52.00
2022-08-09T03:53:58.986Z,60.00
2022-08-09T03:55:02.952Z,72.00
2022-08-09T03:56:07.427Z,80.00
2022-08-09T03:57:12.169Z,92.00
2022-08-09T03:58:20.947Z,104.00
2022-08-09T03:59:42.797Z,116.00
2022-08-09T04:00:25.391Z,132.00
2022-08-09T04:01:29.844Z,144.00
2022-08-09T04:02:34.538Z,160.00
2022-08-09T04:04:00.577Z,172.00
2022-08-09T04:04:46.164Z,196.00
2022-08-09T04:05:47.809Z,212.00
2022-08-09T04:06:52.965Z,236.00
2022-08-09T04:07:57.731Z,256.00
2022-08-09T04:09:01.937Z,280.00
2022-08-09T04:10:06.414Z,300.00
2022-08-09T04:11:11.272Z,328.00
2022-08-09T04:12:40.656Z,352.00
2022-08-09T04:13:22.581Z,388.00
2022-08-09T04:14:53.981Z,404.00
2022-08-09T04:15:42.678Z,436.00
2022-08-09T04:16:33.317Z,472.00
2022-08-09T04:17:37.797Z,500.00
2022-08-09T04:18:42.285Z,544.00
2022-08-09T04:19:51.501Z,552.00
2022-08-09T04:20:51.618Z,616.00
2022-08-09T04:21:55.740Z,612.00
2022-08-09T04:23:00.234Z,692.00
2022-08-09T04:24:04.718Z,668.00
2022-08-09T04:25:09.191Z,744.00
2022-08-09T04:26:13.698Z,772.00
2022-08-09T04:27:22.076Z,784.00
2022-08-09T04:28:34.003Z,840.00
2022-08-09T04:29:27.138Z,880.00
2022-08-09T04:30:31.611Z,880.00
2022-08-09T04:31:37.767Z,948.00
2022-08-09T04:32:40.784Z,984.00
2022-08-09T04:33:52.084Z,992.00
2022-08-09T04:34:54.405Z,1036.00
2022-08-09T04:35:54.030Z,1068.00
2022-08-09T04:36:58.510Z,1092.00
2022-08-09T04:38:03.588Z,1176.00
2022-08-09T04:39:07.487Z,1176.00
2022-08-09T04:40:11.949Z,1176.00
2022-08-09T04:41:16.442Z,1248.00
2022-08-09T04:42:20.921Z,1308.00
2022-08-09T04:43:25.433Z,1328.00
2022-08-09T04:59:54.354Z,1844.00
2022-08-09T05:00:58.791Z,1832.00
2022-08-09T05:02:03.280Z,1832.00
2022-08-09T05:03:39.874Z,1880.00
2022-08-09T05:04:12.033Z,1968.00
2022-08-09T05:05:18.940Z,2040.00
2022-08-09T05:06:26.798Z,2040.00
2022-08-09T05:07:25.239Z,2060.00
2022-08-09T05:08:29.634Z,2064.00
2022-08-09T05:09:42.255Z,2052.00
2022-08-09T05:10:38.413Z,2132.00
2022-08-09T05:11:43.448Z,2160.00
2022-08-09T05:12:47.220Z,2188.00
2022-08-09T05:13:51.603Z,2180.00
2022-08-09T05:14:55.994Z,2204.00
2022-08-09T05:16:00.383Z,2256.00
2022-08-09T05:17:04.797Z,2276.00
2022-08-09T05:18:37.906Z,2276.00
2022-08-09T05:19:13.565Z,2304.00
2022-08-09T05:20:17.947Z,2372.00
2022-08-09T05:21:24.345Z,2496.00
2022-08-09T05:22:36.329Z,2512.00
2022-08-09T05:23:53.844Z,2480.00
2022-08-09T05:24:35.545Z,2424.00
2022-08-09T05:25:40.052Z,2388.00
2022-08-09T05:26:45.948Z,2384.00
2022-08-09T05:27:49.608Z,2424.00
2022-08-09T05:28:54.491Z,2484.00
2022-08-09T05:29:59.112Z,2480.00
2022-08-09T05:31:09.376Z,2468.00
2022-08-09T05:32:07.756Z,2524.00
2022-08-09T05:33:12.255Z,2596.00
2022-08-09T05:34:17.574Z,2632.00
2022-08-09T05:35:21.929Z,2664.00
2022-08-09T05:36:28.826Z,2664.00
2022-08-09T05:37:30.016Z,2660.00
2022-08-09T05:38:34.393Z,2700.00
2022-08-09T05:39:42.411Z,2708.00
2022-08-09T05:40:45.557Z,2720.00
2022-08-09T05:41:47.626Z,2732.00
2022-08-09T05:42:52.520Z,2780.00
2022-08-09T05:43:56.958Z,2756.00
2022-08-09T05:45:01.529Z,2784.00
2022-08-09T05:46:05.896Z,2820.00
2022-08-09T05:47:10.328Z,2844.00
2022-08-09T05:48:14.908Z,2840.00
2022-08-09T05:50:14.834Z,2844.00
2022-08-09T05:50:44.125Z,2900.00
2022-08-09T05:51:43.124Z,2928.00
2022-08-09T05:52:33.728Z,2932.00
2022-08-09T05:53:51.602Z,2940.00
2022-08-09T05:54:42.319Z,2972.00
2022-08-09T05:55:46.709Z,3000.00
2022-08-09T05:56:54.469Z,3012.00
2022-08-09T05:57:58.427Z,2992.00
2022-08-09T05:59:00.867Z,2988.00
2022-08-09T06:00:05.393Z,2988.00
2022-08-09T06:01:09.803Z,3000.00
2022-08-09T06:02:17.110Z,3016.00
2022-08-09T06:03:19.574Z,3008.00
2022-08-09T06:04:23.286Z,3056.00
2022-08-09T06:05:49.910Z,3092.00
2022-08-09T06:06:31.821Z,3108.00
2022-08-09T06:07:36.237Z,3080.00
2022-08-09T06:08:40.610Z,3088.00
2022-08-09T06:09:54.880Z,3096.00
2022-08-09T06:10:49.858Z,3160.00
2022-08-09T06:11:57.296Z,3176.00
2022-08-09T06:13:02.988Z,3200.00
2022-08-09T06:14:02.549Z,3188.00
2022-08-09T06:15:10.075Z,3172.00
2022-08-09T06:16:11.302Z,3216.00
2022-08-09T06:17:15.672Z,3228.00
2022-08-09T06:18:20.518Z,3252.00
2022-08-09T06:19:24.452Z,3276.00
2022-08-09T06:20:28.843Z,3320.00
2022-08-09T06:21:33.213Z,3320.00
2022-08-09T06:22:37.585Z,3340.00
2022-08-09T06:23:57.962Z,3380.00
2022-08-09T06:24:46.365Z,3360.00
2022-08-09T06:25:50.732Z,3416.00
2022-08-09T06:26:55.103Z,3464.00
2022-08-09T06:27:59.514Z,3476.00
2022-08-09T06:29:04.531Z,3432.00
2022-08-09T06:30:09.622Z,3392.00
2022-08-09T06:31:12.666Z,3360.00
2022-08-09T06:33:13.637Z,3308.00
2022-08-09T06:33:39.606Z,3216.00
2022-08-09T06:34:26.050Z,3176.00
2022-08-09T06:35:35.751Z,3168.00
2022-08-09T06:36:34.565Z,3188.00
2022-08-09T06:37:52.762Z,3244.00
2022-08-09T06:38:49.806Z,3308.00
2022-08-09T06:39:57.837Z,3464.00
2022-08-09T06:40:55.131Z,3560.00
2022-08-09T06:42:08.840Z,3568.00
2022-08-09T06:43:00.904Z,3568.00
2022-08-09T06:44:05.285Z,3512.00
2022-08-09T06:46:04.829Z,3448.00
2022-08-09T06:46:39.690Z,3424.00
2022-08-09T06:47:18.415Z,3440.00
2022-08-09T06:48:26.167Z,3480.00
2022-08-09T06:49:44.962Z,3540.00
2022-08-09T06:50:31.867Z,3524.00
2022-08-09T06:51:39.828Z,3528.00
2022-08-09T06:52:40.339Z,3608.00
2022-08-09T06:53:44.761Z,3604.00
2022-08-09T06:54:49.137Z,3544.00
2022-08-09T06:55:53.540Z,3504.00
2022-08-09T06:56:57.897Z,3512.00
2022-08-09T06:58:04.524Z,3520.00
2022-08-09T07:00:49.454Z,3552.00
2022-08-09T07:00:52.217Z,3592.00
2022-08-09T07:01:15.495Z,3596.00
2022-08-09T07:02:19.980Z,3608.00
2022-08-09T07:03:28.528Z,3576.00
2022-08-09T07:04:28.909Z,3568.00
2022-08-09T07:06:02.936Z,3536.00
2022-08-09T07:06:37.704Z,3588.00
2022-08-09T07:07:59.948Z,3632.00
2022-08-09T07:08:46.794Z,3652.00
2022-08-09T07:09:56.051Z,3612.00
2022-08-09T07:10:56.119Z,3604.00
2022-08-09T07:12:00.551Z,3596.00
2022-08-09T07:13:05.352Z,3616.00
2022-08-09T07:14:09.608Z,3648.00
2022-08-09T07:16:34.873Z,3704.00
2022-08-09T07:16:41.446Z,3744.00
2022-08-09T07:17:22.844Z,3744.00
2022-08-09T07:18:27.243Z,3748.00
2022-08-09T07:19:31.711Z,3740.00
2022-08-09T07:20:36.172Z,3740.00
2022-08-09T07:21:40.551Z,3740.00
2022-08-09T07:22:49.549Z,3744.00
2022-08-09T07:23:57.735Z,3768.00
2022-08-09T07:24:53.813Z,3760.00
2022-08-09T07:26:02.859Z,3736.00
2022-08-09T07:27:02.583Z,3740.00
2022-08-09T07:28:07.020Z,3744.00
2022-08-09T07:29:13.207Z,3756.00
2022-08-09T07:30:16.046Z,3760.00
2022-08-09T07:31:20.393Z,3780.00
2022-08-09T07:32:33.715Z,3796.00
2022-08-09T07:33:30.931Z,3840.00
2022-08-09T07:34:33.731Z,3852.00
2022-08-09T07:35:44.255Z,3876.00
2022-08-09T07:36:42.324Z,3900.00
2022-08-09T07:37:48.089Z,3872.00
2022-08-09T07:39:00.454Z,3880.00
2022-08-09T07:39:55.924Z,3860.00
2022-08-09T07:41:12.043Z,3848.00
2022-08-09T07:42:04.345Z,3856.00
2022-08-09T07:43:16.494Z,3864.00
2022-08-09T07:44:14.205Z,3852.00
2022-08-09T07:45:23.711Z,3876.00
2022-08-09T07:46:23.308Z,3892.00
2022-08-09T07:47:27.747Z,3916.00
2022-08-09T07:48:32.157Z,3952.00
2022-08-09T07:50:05.435Z,3984.00
2022-08-09T07:50:41.035Z,4000.00
2022-08-09T07:52:05.973Z,4020.00
2022-08-09T07:52:49.917Z,4032.00
2022-08-09T07:54:06.463Z,4012.00
2022-08-09T07:54:58.794Z,4000.00
2022-08-09T07:56:06.876Z,3964.00
2022-08-09T07:57:11.592Z,3936.00
2022-08-09T07:58:13.092Z,3908.00
2022-08-09T07:59:33.749Z,3900.00
2022-08-09T08:00:35.983Z,3872.00
2022-08-09T08:01:25.534Z,3856.00
2022-08-09T08:02:29.827Z,3900.00
2022-08-09T08:03:37.018Z,3952.00
2022-08-09T08:04:38.467Z,3956.00
2022-08-09T08:05:57.573Z,3968.00
2022-08-09T08:06:55.589Z,3980.00
2022-08-09T08:08:43.294Z,3992.00
2022-08-09T08:09:03.992Z,3960.00
2022-08-09T08:10:07.796Z,3956.00
2022-08-09T08:12:24.167Z,3972.00
2022-08-09T08:12:28.027Z,4004.00
2022-08-09T08:13:13.761Z,3996.00
2022-08-09T08:15:43.997Z,4056.00
2022-08-09T08:17:00.851Z,4076.00
2022-08-09T08:17:57.880Z,3996.00
2022-08-09T08:18:57.670Z,3960.00
2022-08-09T08:20:02.107Z,3848.00
2022-08-09T08:21:06.578Z,3848.00
2022-08-09T08:22:10.999Z,3880.00
2022-08-09T08:23:17.107Z,3972.00
2022-08-09T08:24:19.939Z,4044.00
2022-08-09T08:25:24.409Z,4044.00
2022-08-09T08:26:42.053Z,4060.00
2022-08-09T08:27:40.530Z,4072.00
2022-08-09T08:28:37.692Z,3888.00
2022-08-09T08:29:48.449Z,4160.00
2022-08-09T08:30:47.485Z,4252.00
2022-08-09T08:32:03.737Z,4284.00
2022-08-09T08:32:56.254Z,4396.00
2022-08-09T08:34:00.795Z,4416.00
2022-08-09T08:35:05.111Z,4404.00
2022-08-09T08:36:09.574Z,4400.00
2022-08-09T08:37:15.692Z,4356.00
2022-08-09T08:38:18.542Z,4348.00
2022-08-09T08:39:23.178Z,4292.00
2022-08-09T08:40:29.669Z,4288.00
2022-08-09T08:41:42.086Z,4292.00
2022-08-09T08:42:36.696Z,4300.00
2022-08-09T08:43:41.070Z,4332.00
2022-08-09T08:44:46.283Z,4344.00
2022-08-09T08:45:51.707Z,4380.00
2022-08-09T08:47:02.748Z,4432.00
2022-08-09T08:47:59.720Z,4444.00
2022-08-09T08:49:03.232Z,4440.00
2022-08-09T08:50:07.773Z,4436.00
2022-08-09T08:51:12.194Z,4428.00
2022-08-09T08:52:35.004Z,4424.00
2022-08-09T08:53:22.060Z,4420.00
2022-08-09T08:54:28.093Z,4440.00
2022-08-09T08:55:30.074Z,4424.00
2022-08-09T08:56:34.523Z,4444.00
2022-08-09T08:57:38.986Z,4464.00
2022-08-09T08:58:46.496Z,4428.00
2022-08-09T08:59:49.114Z,4384.00
2022-08-09T09:00:54.330Z,4332.00
2022-08-09T09:01:59.591Z,4268.00
2022-08-09T09:03:08.588Z,4308.00
2022-08-09T09:04:05.737Z,4356.00
2022-08-09T09:05:11.898Z,4388.00
2022-08-09T09:06:14.657Z,4444.00
2022-08-09T09:07:19.152Z,4512.00
2022-08-09T09:08:29.261Z,4468.00
2022-08-09T09:09:57.900Z,4532.00
2022-08-09T09:10:32.746Z,4564.00
2022-08-09T09:11:38.611Z,4572.00
2022-08-09T09:12:41.688Z,4580.00
2022-08-09T09:13:56.307Z,4612.00
2022-08-09T09:14:50.609Z,4624.00
2022-08-09T09:15:55.194Z,4608.00
2022-08-09T09:16:59.667Z,4640.00
2022-08-09T09:18:04.105Z,4636.00
2022-08-09T09:19:37.256Z,4632.00
2022-08-09T09:20:15.372Z,4676.00
2022-08-09T09:21:17.449Z,4720.00
2022-08-09T09:22:34.208Z,4684.00
2022-08-09T09:23:37.574Z,4716.00
2022-08-09T09:24:30.867Z,4636.00
2022-08-09T09:26:03.411Z,4604.00
2022-08-09T09:26:39.840Z,4668.00
2022-08-09T09:28:05.699Z,4604.00
2022-08-09T09:29:04.479Z,4600.00
2022-08-09T09:30:12.405Z,4584.00
2022-08-09T09:30:57.681Z,4624.00
2022-08-09T09:32:07.015Z,4648.00
2022-08-09T09:33:16.817Z,4680.00
2022-08-09T09:34:11.113Z,4684.00
2022-08-09T09:35:15.744Z,4684.00
2022-08-09T09:36:21.253Z,4720.00
2022-08-09T09:37:24.625Z,4720.00
2022-08-09T09:38:36.714Z,4728.00
2022-08-09T09:39:50.460Z,4752.00
2022-08-09T09:40:38.030Z,4740.00
2022-08-09T09:41:49.395Z,4772.00
2022-08-09T09:42:47.111Z,4756.00
2022-08-09T09:44:12.417Z,4780.00
2022-08-09T09:44:56.053Z,4780.00
2022-08-09T09:47:04.975Z,4812.00
2022-08-09T09:48:09.410Z,4840.00
2022-08-09T09:49:13.861Z,4868.00
2022-08-09T09:50:18.400Z,4860.00
2022-08-09T09:51:26.154Z,4888.00
2022-08-09T09:52:35.947Z,4932.00
2022-08-09T09:53:44.026Z,4920.00
2022-08-09T09:54:36.202Z,4936.00
2022-08-09T09:55:40.645Z,4928.00
2022-08-09T09:56:53.334Z,4932.00
2022-08-09T09:58:03.254Z,5020.00
2022-08-09T09:58:54.053Z,4980.00
2022-08-09T09:59:58.497Z,4956.00
2022-08-09T10:01:02.932Z,4992.00
2022-08-09T10:02:07.393Z,5044.00
2022-08-09T10:03:14.105Z,5032.00
2022-08-09T10:04:22.950Z,5048.00
2022-08-09T10:05:27.143Z,5040.00
2022-08-09T10:06:25.239Z,5024.00
2022-08-09T10:07:30.080Z,5048.00
2022-08-09T10:08:55.226Z,5044.00
2022-08-09T10:09:40.862Z,5100.00
2022-08-09T10:10:43.106Z,5020.00
2022-08-09T10:11:54.009Z,5096.00
2022-08-09T10:12:52.273Z,5128.00
2022-08-09T10:13:56.514Z,5128.00
2022-08-09T10:15:00.974Z,5144.00
2022-08-09T10:16:55.589Z,5176.00
2022-08-09T10:17:39.110Z,5192.00
2022-08-09T10:18:14.906Z,5176.00
2022-08-09T10:19:19.605Z,5192.00
2022-08-09T10:20:29.857Z,5208.00
2022-08-09T10:21:28.558Z,5212.00
2022-08-09T10:22:34.137Z,5212.00
2022-08-09T10:23:37.847Z,5224.00
2022-08-09T10:24:42.626Z,5232.00
2022-08-09T10:26:08.021Z,5216.00
2022-08-09T10:26:53.718Z,5276.00
2022-08-09T10:27:58.326Z,5392.00
2022-08-09T10:29:22.716Z,5432.00
2022-08-09T10:30:43.519Z,5380.00
2022-08-09T10:32:27.515Z,5488.00
2022-08-09T10:33:29.647Z,5536.00
2022-08-09T10:34:32.842Z,5672.00
2022-08-09T10:35:29.829Z,5684.00
2022-08-09T10:36:35.409Z,5680.00
2022-08-09T10:37:39.054Z,5696.00
2022-08-09T10:38:56.800Z,5816.00
2022-08-09T10:39:49.527Z,5944.00
2022-08-09T10:40:52.224Z,5744.00
2022-08-09T10:41:56.602Z,5732.00
2022-08-09T10:43:01.569Z,5708.00
2022-08-09T10:44:05.527Z,5944.00
2022-08-09T10:45:11.790Z,5852.00
2022-08-09T10:46:20.037Z,5816.00
2022-08-09T10:48:11.920Z,5836.00
2022-08-09T10:48:30.580Z,5840.00
2022-08-09T10:49:50.150Z,5800.00
2022-08-09T10:50:32.924Z,5940.00
2022-08-09T10:51:41.297Z,5820.00
2022-08-09T10:52:42.813Z,5752.00
2022-08-09T10:53:46.891Z,5768.00
2022-08-09T10:54:50.136Z,5628.00
2022-08-09T10:55:58.306Z,5628.00
2022-08-09T10:56:59.001Z,5624.00
2022-08-09T10:58:03.478Z,5612.00
2022-08-09T10:59:07.912Z,5624.00
2022-08-09T11:00:12.361Z,5604.00
2022-08-09T11:03:14.213Z,5628.00
2022-08-09T11:03:15.571Z,5620.00
2022-08-09T11:03:50.293Z,5596.00
2022-08-09T11:04:32.700Z,5476.00
2022-08-09T11:05:34.690Z,5400.00
2022-08-09T11:06:39.147Z,5672.00
2022-08-09T11:07:58.324Z,5756.00
2022-08-09T11:08:53.107Z,5728.00
2022-08-09T11:09:52.610Z,5764.00
2022-08-09T11:11:08.549Z,5748.00
2022-08-09T11:12:01.439Z,5736.00
2022-08-09T11:13:05.904Z,5800.00
2022-08-09T11:14:10.363Z,5844.00
2022-08-09T11:15:18.941Z,5848.00
2022-08-09T11:16:35.056Z,5840.00
2022-08-09T11:17:23.794Z,5952.00
2022-08-09T11:18:28.204Z,6064.00
2022-08-09T11:20:19.857Z,6052.00
2022-08-09T11:20:37.116Z,5976.00
2022-08-09T11:21:41.575Z,5992.00
2022-08-09T11:22:46.023Z,5948.00
2022-08-09T11:23:50.540Z,5976.00
2022-08-09T11:24:54.988Z,5948.00
2022-08-09T11:26:00.312Z,5896.00
2022-08-09T11:27:06.757Z,5908.00
2022-08-09T11:28:27.864Z,5940.00
2022-08-09T11:29:12.808Z,5952.00
2022-08-09T11:30:32.390Z,6044.00
2022-08-09T11:31:36.699Z,5956.00
2022-08-09T11:32:26.887Z,5952.00
2022-08-09T11:33:31.350Z,6152.00
2022-08-09T11:34:35.796Z,6232.00
2022-08-09T11:35:51.785Z,6236.00
2022-08-09T11:36:44.658Z,6140.00
2022-08-09T11:37:49.878Z,6188.00
2022-08-09T11:38:53.580Z,6224.00
2022-08-09T11:39:58.116Z,6268.00
2022-08-09T11:41:02.565Z,6272.00
2022-08-09T11:42:08.319Z,6244.00
2022-08-09T11:43:12.929Z,6296.00
2022-08-09T11:44:17.440Z,6320.00
2022-08-09T11:45:22.348Z,6344.00
2022-08-09T11:46:33.181Z,6472.00
2022-08-09T11:47:31.355Z,6372.00
2022-08-09T11:48:39.800Z,6400.00
2022-08-09T11:50:55.069Z,6532.00
2022-08-09T11:50:55.663Z,6580.00
2022-08-09T11:52:56.708Z,6428.00
2022-08-09T11:53:15.878Z,6400.00
2022-08-09T11:54:04.196Z,6568.00
2022-08-09T11:55:07.021Z,6448.00
2022-08-09T11:56:11.459Z,6544.00
2022-08-09T11:57:15.911Z,6568.00
2022-08-09T11:58:32.305Z,6360.00
2022-08-09T11:59:24.879Z,6492.00
2022-08-09T12:00:30.939Z,6676.00
2022-08-09T12:02:16.204Z,6600.00
2022-08-09T12:02:39.887Z,6612.00
2022-08-09T12:03:57.385Z,6644.00
2022-08-09T12:04:48.302Z,6880.00
2022-08-09T12:05:53.045Z,6904.00
2022-08-09T12:06:57.751Z,6960.00
2022-08-09T12:08:01.972Z,7092.00
2022-08-09T12:09:15.283Z,7176.00
2022-08-09T12:10:14.044Z,7224.00
2022-08-09T12:11:15.723Z,7216.00
2022-08-09T12:12:29.217Z,7228.00
2022-08-09T12:14:09.923Z,7272.00
2022-08-09T12:14:40.819Z,7260.00
2022-08-09T12:15:50.280Z,7284.00
2022-08-09T12:16:40.272Z,7312.00
2022-08-09T12:17:47.820Z,7308.00
2022-08-09T12:18:49.018Z,7360.00
2022-08-09T12:19:59.753Z,7440.00
2022-08-09T12:20:59.087Z,7504.00
2022-08-09T12:22:03.151Z,7636.00
2022-08-09T12:23:08.695Z,7624.00
2022-08-09T12:24:13.185Z,7608.00
2022-08-09T12:25:17.704Z,7700.00
2022-08-09T12:26:25.849Z,7692.00
2022-08-09T12:29:11.661Z,7600.00
2022-08-09T12:29:11.992Z,7716.00
2022-08-09T12:29:44.011Z,7600.00
2022-08-09T12:30:40.372Z,8336.00
2022-08-09T12:32:02.700Z,8612.00
2022-08-09T12:32:50.049Z,8716.00
2022-08-09T12:34:00.951Z,8516.00
2022-08-09T12:34:58.996Z,8604.00
2022-08-09T12:36:03.706Z,8452.00
2022-08-09T12:37:21.570Z,8840.00
2022-08-09T12:38:12.609Z,9012.00
2022-08-09T12:39:17.071Z,9160.00
2022-08-09T12:40:23.223Z,9384.00
2022-08-09T12:41:25.988Z,9568.00
2022-08-09T12:42:31.110Z,9432.00
2022-08-09T12:44:05.470Z,9828.00
2022-08-09T12:44:39.588Z,7368.00
2022-08-09T12:45:44.297Z,9084.00
2022-08-09T12:46:49.981Z,10232.00
2022-08-09T12:47:53.166Z,10448.00
2022-08-09T12:48:57.948Z,10632.00
2022-08-09T12:50:02.399Z,10252.00
2022-08-09T12:51:06.839Z,10784.00
2022-08-09T12:52:11.279Z,11044.00
2022-08-09T12:53:18.296Z,11012.00
2022-08-09T12:54:20.160Z,11516.00
2022-08-09T12:56:12.381Z,11780.00
2022-08-09T12:56:43.727Z,12072.00
2022-08-09T12:57:33.790Z,11652.00
2022-08-09T12:58:42.530Z,12492.00
2022-08-09T13:00:02.787Z,12536.00
2022-08-09T13:00:48.206Z,12452.00
2022-08-09T13:01:52.942Z,13324.00
2022-08-09T13:02:57.396Z,12500.00
2022-08-09T13:04:02.003Z,12964.00
2022-08-09T13:05:06.571Z,13300.00
2022-08-09T13:06:13.431Z,13760.00
2022-08-09T13:07:15.465Z,14144.00
2022-08-09T13:08:21.159Z,13664.00
2022-08-09T13:09:25.161Z,14016.00
2022-08-09T13:10:34.762Z,14272.00
2022-08-09T13:11:34.044Z,14144.00
2022-08-09T13:12:40.087Z,16512.00
2022-08-09T13:14:41.987Z,15904.00
2022-08-09T13:14:53.645Z,15904.00
2022-08-09T13:15:52.929Z,16608.00
2022-08-09T13:16:57.371Z,15584.00
2022-08-09T13:18:05.397Z,15552.00
2022-08-09T13:19:06.296Z,16416.00
2022-08-09T13:20:18.800Z,16672.00
2022-08-09T13:22:35.900Z,18208.00
2022-08-09T13:22:45.599Z,19040.00
2022-08-09T13:24:44.578Z,17600.00
2022-08-09T13:24:53.023Z,18656.00
2022-08-09T13:25:33.058Z,19840.00
2022-08-09T13:26:37.631Z,19264.00
2022-08-09T13:27:54.628Z,18848.00
2022-08-09T13:28:46.385Z,19584.00
2022-08-09T13:30:03.863Z,20448.00
2022-08-09T13:32:14.143Z,21536.00
2022-08-09T13:32:19.458Z,23872.00
2022-08-09T13:33:04.233Z,23616.00
2022-08-09T13:34:08.707Z,19808.00
2022-08-09T13:35:13.165Z,20896.00
2022-08-09T13:36:24.396Z,24064.00
2022-08-09T13:37:24.804Z,20992.00
2022-08-09T13:38:55.856Z,21856.00
2022-08-09T13:41:46.925Z,23008.00